createdAt,value
2023-09-17T00:02:18.351Z,5.40
2023-09-17T00:04:46.172Z,5.38
2023-09-17T00:07:13.952Z,4.25
2023-09-17T00:09:41.236Z,5.20
2023-09-17T00:12:09.052Z,4.65
2023-09-17T00:14:36.454Z,4.78
2023-09-17T00:17:04.186Z,4.43
2023-09-17T00:19:33.812Z,4.68
2023-09-17T00:22:02.306Z,4.80
2023-09-17T00:24:30.056Z,4.63
2023-09-17T00:26:57.328Z,4.50
2023-09-17T00:29:26.205Z,4.30
2023-09-17T00:31:53.552Z,4.50
2023-09-17T00:34:20.995Z,4.90
2023-09-17T00:36:48.657Z,5.03
2023-09-17T00:39:16.016Z,4.75
2023-09-17T00:41:43.266Z,4.75
2023-09-17T00:44:10.658Z,4.55
2023-09-17T00:46:38.526Z,4.18
2023-09-17T00:49:13.865Z,4.60
2023-09-17T00:51:44.857Z,4.30
2023-09-17T00:54:12.920Z,4.57
2023-09-17T00:56:40.592Z,4.88
2023-09-17T00:59:08.194Z,4.10
2023-09-17T01:01:36.026Z,4.15
2023-09-17T01:04:04.588Z,5.18
2023-09-17T01:06:32.331Z,5.30
2023-09-17T01:09:00.121Z,4.32
2023-09-17T01:11:27.827Z,5.10
2023-09-17T01:14:15.455Z,5.05
2023-09-17T01:16:43.328Z,4.78
2023-09-17T01:19:18.939Z,5.10
2023-09-17T01:21:53.397Z,4.95
2023-09-17T01:24:28.148Z,4.80
2023-09-17T01:27:00.806Z,5.20
2023-09-17T01:29:32.282Z,4.80
2023-09-17T01:31:59.811Z,4.20
2023-09-17T01:34:30.963Z,4.45
2023-09-17T01:37:00.836Z,4.38
2023-09-17T01:39:29.826Z,4.57
2023-09-17T01:41:59.746Z,4.32
2023-09-17T01:44:27.675Z,4.72
2023-09-17T01:46:55.142Z,4.57
2023-09-17T01:49:22.541Z,4.70
2023-09-17T01:51:50.068Z,4.45
2023-09-17T01:54:17.598Z,5.22
2023-09-17T01:56:45.056Z,5.05
2023-09-17T01:59:13.796Z,4.88
2023-09-17T02:01:43.993Z,6.00
2023-09-17T02:04:11.323Z,6.60
2023-09-17T02:06:38.917Z,9.98
2023-09-17T02:09:06.999Z,5.63
2023-09-17T02:11:34.395Z,4.75
2023-09-17T02:14:04.098Z,6.03
2023-09-17T02:16:32.956Z,5.30
2023-09-17T02:19:00.587Z,5.30
2023-09-17T02:21:27.856Z,5.50
2023-09-17T02:23:56.276Z,5.68
2023-09-17T02:26:23.508Z,5.05
2023-09-17T02:28:51.338Z,5.45
2023-09-17T02:31:18.618Z,5.32
2023-09-17T02:33:45.979Z,5.10
2023-09-17T02:36:14.666Z,5.22
2023-09-17T02:38:45.239Z,5.15
2023-09-17T02:41:12.453Z,5.38
2023-09-17T02:43:39.679Z,4.85
2023-09-17T02:46:07.597Z,5.00
2023-09-17T02:48:36.142Z,5.03
2023-09-17T02:51:04.133Z,5.20
2023-09-17T02:53:31.455Z,4.80
2023-09-17T02:55:58.994Z,4.78
2023-09-17T02:58:26.417Z,4.70
2023-09-17T03:00:53.716Z,4.55
2023-09-17T03:03:21.179Z,4.88
2023-09-17T03:05:48.602Z,4.50
2023-09-17T03:08:16.342Z,5.30
2023-09-17T03:10:44.133Z,4.68
2023-09-17T03:13:12.697Z,4.80
2023-09-17T03:15:40.282Z,5.22
2023-09-17T03:18:07.566Z,5.13
2023-09-17T03:20:35.090Z,5.35
2023-09-17T03:23:05.934Z,5.22
2023-09-17T03:25:33.571Z,4.72
2023-09-17T03:28:01.232Z,4.60
2023-09-17T03:30:28.937Z,4.75
2023-09-17T03:33:04.340Z,5.35
2023-09-17T03:35:32.677Z,4.97
2023-09-17T03:38:00.193Z,5.28
2023-09-17T03:40:27.896Z,4.93
2023-09-17T03:42:55.201Z,4.90
2023-09-17T03:45:22.477Z,4.57
2023-09-17T03:47:49.945Z,4.85
2023-09-17T03:50:20.857Z,4.70
2023-09-17T03:52:50.210Z,5.15
2023-09-17T03:55:17.786Z,5.35
2023-09-17T03:57:45.333Z,4.97
2023-09-17T04:00:13.754Z,4.68
2023-09-17T04:02:41.839Z,4.72
2023-09-17T04:05:11.146Z,6.03
2023-09-17T04:07:39.618Z,5.07
2023-09-17T04:10:07.683Z,4.50
2023-09-17T04:12:39.019Z,4.90
2023-09-17T04:15:10.320Z,4.88
2023-09-17T04:17:38.474Z,5.03
2023-09-17T04:20:10.887Z,4.47
2023-09-17T04:22:38.426Z,4.60
2023-09-17T04:25:11.229Z,4.93
2023-09-17T04:27:39.845Z,4.80
2023-09-17T04:30:08.731Z,5.13
2023-09-17T04:32:39.773Z,5.18
2023-09-17T04:35:08.564Z,5.50
2023-09-17T04:37:36.725Z,5.10
2023-09-17T04:40:09.713Z,4.78
2023-09-17T04:42:37.402Z,4.40
2023-09-17T04:45:07.996Z,4.63
2023-09-17T04:47:35.986Z,4.93
2023-09-17T04:50:03.938Z,4.80
2023-09-17T04:52:31.321Z,4.63
2023-09-17T04:54:58.739Z,4.80
2023-09-17T04:57:26.576Z,4.88
2023-09-17T04:59:53.968Z,4.43
2023-09-17T05:02:23.037Z,4.50
2023-09-17T05:04:50.366Z,4.45
2023-09-17T05:07:17.837Z,4.38
2023-09-17T05:09:45.135Z,4.35
2023-09-17T05:12:12.454Z,4.80
2023-09-17T05:14:42.183Z,4.55
2023-09-17T05:17:11.171Z,4.75
2023-09-17T05:19:39.409Z,4.53
2023-09-17T05:22:06.783Z,4.43
2023-09-17T05:24:34.008Z,4.88
2023-09-17T05:27:01.235Z,4.22
2023-09-17T05:29:29.715Z,4.72
2023-09-17T05:31:57.076Z,4.80
2023-09-17T05:34:24.989Z,5.60
2023-09-17T05:36:52.354Z,4.68
2023-09-17T05:39:19.807Z,4.40
2023-09-17T05:41:47.326Z,4.32
2023-09-17T05:44:14.702Z,4.03
2023-09-17T05:46:41.986Z,4.35
2023-09-17T05:49:10.216Z,3.90
2023-09-17T05:51:37.595Z,3.90
2023-09-17T05:54:04.843Z,4.28
2023-09-17T05:56:32.194Z,3.90
2023-09-17T05:58:59.710Z,3.38
2023-09-17T06:01:27.433Z,3.83
2023-09-17T06:03:55.262Z,3.50
2023-09-17T06:06:22.860Z,3.60
2023-09-17T06:08:52.006Z,3.97
2023-09-17T06:11:19.835Z,3.78
2023-09-17T06:13:47.281Z,4.10
2023-09-17T06:16:14.786Z,3.55
2023-09-17T06:18:42.151Z,3.50
2023-09-17T06:21:09.585Z,3.75
2023-09-17T06:23:36.957Z,3.55
2023-09-17T06:26:10.138Z,3.42
2023-09-17T06:28:37.947Z,3.47
2023-09-17T06:31:05.621Z,3.05
2023-09-17T06:33:33.014Z,3.28
2023-09-17T06:36:00.281Z,3.47
2023-09-17T06:38:27.596Z,3.22
2023-09-17T06:40:54.993Z,3.20
2023-09-17T06:43:22.452Z,4.30
2023-09-17T06:45:49.705Z,3.40
2023-09-17T06:48:17.446Z,3.20
2023-09-17T06:50:45.023Z,3.22
2023-09-17T06:53:12.353Z,3.05
2023-09-17T06:55:39.722Z,3.03
2023-09-17T06:58:07.086Z,3.45
2023-09-17T07:00:34.305Z,3.25
2023-09-17T07:03:01.775Z,2.85
2023-09-17T07:05:29.249Z,3.00
2023-09-17T07:07:56.583Z,2.75
2023-09-17T07:10:24.187Z,3.08
2023-09-17T07:12:51.876Z,2.90
2023-09-17T07:15:21.478Z,2.90
2023-09-17T07:17:49.024Z,2.70
2023-09-17T07:20:16.327Z,2.60
2023-09-17T07:22:43.588Z,2.45
2023-09-17T07:25:11.005Z,2.90
2023-09-17T07:27:38.524Z,2.38
2023-09-17T07:30:06.615Z,2.38
2023-09-17T07:32:34.162Z,2.90
2023-09-17T07:35:03.832Z,2.50
2023-09-17T07:37:45.048Z,2.63
2023-09-17T07:40:17.788Z,2.60
2023-09-17T07:42:45.302Z,2.40
2023-09-17T07:45:14.552Z,2.78
2023-09-17T07:47:41.968Z,2.42
2023-09-17T07:50:10.840Z,2.10
2023-09-17T07:52:39.424Z,2.50
2023-09-17T07:55:07.329Z,2.08
2023-09-17T07:57:34.740Z,2.45
2023-09-17T08:00:01.967Z,2.45
2023-09-17T08:02:29.259Z,2.22
2023-09-17T08:04:56.550Z,2.40
2023-09-17T08:07:23.868Z,2.42
2023-09-17T08:09:51.119Z,2.42
2023-09-17T08:12:18.493Z,2.42
2023-09-17T08:14:47.239Z,2.30
2023-09-17T08:17:14.986Z,2.40
2023-09-17T08:19:42.439Z,2.75
2023-09-17T08:22:09.714Z,2.30
2023-09-17T08:24:37.264Z,2.40
2023-09-17T08:27:05.704Z,2.60
2023-09-17T08:29:34.891Z,2.50
2023-09-17T08:32:02.588Z,2.30
2023-09-17T08:34:30.080Z,2.40
2023-09-17T08:36:57.320Z,2.33
2023-09-17T08:39:26.969Z,2.10
2023-09-17T08:41:54.673Z,2.40
2023-09-17T08:44:22.242Z,2.50
2023-09-17T08:46:50.403Z,2.20
2023-09-17T08:49:18.724Z,2.20
2023-09-17T08:51:47.897Z,2.58
2023-09-17T08:54:18.061Z,2.40
2023-09-17T08:56:45.999Z,2.40
2023-09-17T08:59:21.827Z,2.25
2023-09-17T09:01:50.456Z,2.70
2023-09-17T09:04:18.144Z,2.60
2023-09-17T09:06:45.629Z,2.40
2023-09-17T09:09:13.712Z,2.28
2023-09-17T09:11:41.322Z,2.22
2023-09-17T09:14:09.256Z,2.22
2023-09-17T09:16:38.653Z,2.13
2023-09-17T09:19:08.743Z,2.35
2023-09-17T09:21:37.246Z,2.83
2023-09-17T09:24:04.798Z,2.20
2023-09-17T09:26:36.573Z,2.17
2023-09-17T09:29:05.622Z,2.30
2023-09-17T09:31:33.367Z,2.78
2023-09-17T09:34:00.861Z,2.40
2023-09-17T09:36:29.402Z,2.28
2023-09-17T09:38:57.705Z,2.20
2023-09-17T09:41:30.410Z,2.35
2023-09-17T09:43:58.373Z,2.25
2023-09-17T09:46:26.241Z,2.17
2023-09-17T09:48:53.750Z,3.03
2023-09-17T09:51:22.602Z,2.13
2023-09-17T09:53:50.161Z,2.15
2023-09-17T09:56:17.862Z,2.10
2023-09-17T09:58:45.608Z,2.28
2023-09-17T10:01:16.348Z,2.28
2023-09-17T10:03:43.971Z,1.75
2023-09-17T10:06:11.218Z,2.10
2023-09-17T10:08:40.345Z,2.20
2023-09-17T10:11:09.153Z,1.80
2023-09-17T10:13:37.016Z,2.30
2023-09-17T10:16:04.495Z,2.20
2023-09-17T10:18:32.505Z,2.25
2023-09-17T10:21:03.913Z,2.42
2023-09-17T10:23:33.058Z,1.90
2023-09-17T10:26:00.939Z,2.00
2023-09-17T10:28:28.704Z,2.05
2023-09-17T10:30:56.953Z,2.30
2023-09-17T10:33:25.382Z,2.00
2023-09-17T10:35:53.148Z,2.22
2023-09-17T10:38:23.664Z,1.67
2023-09-17T10:40:52.243Z,2.15
2023-09-17T10:43:20.584Z,1.92
2023-09-17T10:45:47.969Z,1.95
2023-09-17T10:48:16.385Z,2.40
2023-09-17T10:50:43.987Z,2.03
2023-09-17T10:53:11.954Z,1.95
2023-09-17T10:55:43.619Z,2.28
2023-09-17T10:58:14.489Z,2.03
2023-09-17T11:00:44.268Z,2.55
2023-09-17T11:03:13.080Z,2.00
2023-09-17T11:05:41.054Z,2.10
2023-09-17T11:08:09.271Z,3.30
2023-09-17T11:10:43.121Z,2.13
2023-09-17T11:13:14.291Z,2.17
2023-09-17T11:15:43.545Z,1.80
2023-09-17T11:18:12.225Z,1.98
2023-09-17T11:21:00.722Z,1.92
2023-09-17T11:23:47.956Z,2.50
2023-09-17T11:26:30.884Z,3.03
2023-09-17T11:29:00.143Z,1.90
2023-09-17T11:31:28.371Z,1.92
2023-09-17T11:33:57.216Z,2.03
2023-09-17T11:36:24.507Z,2.28
2023-09-17T11:38:52.167Z,2.17
2023-09-17T11:41:29.295Z,2.22
2023-09-17T11:43:56.576Z,2.05
2023-09-17T11:46:24.731Z,1.98
2023-09-17T11:48:52.009Z,2.25
2023-09-17T11:51:22.302Z,1.92
2023-09-17T11:53:52.772Z,2.30
2023-09-17T11:56:21.069Z,2.00
2023-09-17T11:58:58.361Z,1.85
2023-09-17T12:01:26.431Z,2.25
2023-09-17T12:03:55.640Z,1.92
2023-09-17T12:06:22.950Z,2.03
2023-09-17T12:08:50.360Z,1.98
2023-09-17T12:11:23.262Z,2.10
2023-09-17T12:13:54.920Z,2.22
2023-09-17T12:16:26.269Z,1.90
2023-09-17T12:19:03.726Z,2.03
2023-09-17T12:21:41.809Z,1.80
2023-09-17T12:24:19.467Z,1.83
2023-09-17T12:27:36.437Z,1.88
2023-09-17T12:30:06.458Z,2.10
2023-09-17T12:32:35.399Z,1.70
2023-09-17T12:35:04.488Z,2.10
2023-09-17T12:37:31.821Z,2.00
2023-09-17T12:39:59.132Z,1.92
2023-09-17T12:42:26.476Z,1.90
2023-09-17T12:44:54.948Z,1.80
2023-09-17T12:47:24.328Z,2.00
2023-09-17T12:49:54.566Z,1.90
2023-09-17T12:52:21.929Z,1.90
2023-09-17T12:54:49.226Z,1.77
2023-09-17T12:57:16.879Z,1.73
2023-09-17T12:59:46.519Z,1.90
2023-09-17T13:02:14.605Z,1.60
2023-09-17T13:04:45.373Z,1.70
2023-09-17T13:07:16.171Z,1.67
2023-09-17T13:09:43.986Z,1.83
2023-09-17T13:12:11.378Z,1.50
2023-09-17T13:14:39.810Z,2.00
2023-09-17T13:17:07.227Z,1.88
2023-09-17T13:19:34.645Z,1.65
2023-09-17T13:22:01.961Z,2.00
2023-09-17T13:24:29.849Z,1.85
2023-09-17T13:27:01.083Z,1.60
2023-09-17T13:29:38.294Z,1.92
2023-09-17T13:32:11.219Z,1.92
2023-09-17T13:34:39.838Z,2.10
2023-09-17T13:37:07.254Z,1.77
2023-09-17T13:39:34.612Z,1.73
2023-09-17T13:42:01.917Z,1.60
2023-09-17T13:44:29.221Z,1.90
2023-09-17T13:46:57.156Z,2.10
2023-09-17T13:49:24.602Z,1.80
2023-09-17T13:51:52.013Z,2.05
2023-09-17T13:54:19.300Z,1.73
2023-09-17T13:56:46.688Z,1.70
2023-09-17T13:59:14.237Z,1.80
2023-09-17T14:01:42.151Z,1.90
2023-09-17T14:04:09.571Z,1.70
2023-09-17T14:06:36.908Z,1.80
2023-09-17T14:09:04.238Z,2.03
2023-09-17T14:11:33.262Z,1.80
2023-09-17T14:14:00.713Z,1.90
2023-09-17T14:16:28.055Z,1.83
2023-09-17T14:18:55.279Z,1.80
2023-09-17T14:21:22.678Z,1.90
2023-09-17T14:23:49.941Z,1.70
2023-09-17T14:26:17.258Z,1.63
2023-09-17T14:28:44.676Z,1.70
2023-09-17T14:31:12.370Z,1.83
2023-09-17T14:33:41.030Z,2.03
2023-09-17T14:36:09.330Z,1.60
2023-09-17T14:38:36.695Z,1.77
2023-09-17T14:41:04.091Z,2.00
2023-09-17T14:43:31.464Z,1.60
2023-09-17T14:45:59.293Z,1.80
2023-09-17T14:48:29.690Z,2.00
2023-09-17T14:50:57.055Z,1.90
2023-09-17T14:53:24.348Z,2.10
2023-09-17T14:55:53.236Z,1.63
2023-09-17T14:58:20.545Z,1.52
2023-09-17T15:00:48.094Z,1.77
2023-09-17T15:03:16.090Z,1.85
2023-09-17T15:05:43.523Z,1.55
2023-09-17T15:08:10.885Z,2.05
2023-09-17T15:10:38.328Z,1.60
2023-09-17T15:13:05.879Z,1.90
2023-09-17T15:15:34.237Z,1.77
2023-09-17T15:18:02.206Z,1.83
2023-09-17T15:20:30.609Z,1.83
2023-09-17T15:22:57.886Z,1.77
2023-09-17T15:25:25.193Z,1.92
2023-09-17T15:27:52.441Z,1.70
2023-09-17T15:30:21.897Z,1.70
2023-09-17T15:32:49.697Z,1.63
2023-09-17T15:35:20.953Z,1.88
2023-09-17T15:37:48.879Z,1.90
2023-09-17T15:40:16.340Z,1.60
2023-09-17T15:42:46.598Z,1.80
2023-09-17T15:45:14.425Z,1.73
2023-09-17T15:47:42.624Z,1.50
2023-09-17T15:50:10.331Z,1.80
2023-09-17T15:52:37.676Z,1.73
2023-09-17T15:55:05.473Z,1.80
2023-09-17T15:57:32.774Z,1.40
2023-09-17T16:00:00.017Z,1.67
2023-09-17T16:02:27.530Z,1.73
2023-09-17T16:04:55.037Z,1.58
2023-09-17T16:07:23.527Z,1.55
2023-09-17T16:09:50.830Z,2.70
2023-09-17T16:12:18.127Z,1.50
2023-09-17T16:14:45.366Z,1.50
2023-09-17T16:17:12.674Z,1.90
2023-09-17T16:19:45.649Z,1.52
2023-09-17T16:22:14.413Z,1.42
2023-09-17T16:24:41.932Z,1.50
2023-09-17T16:27:11.165Z,1.90
2023-09-17T16:29:38.374Z,1.52
2023-09-17T16:32:05.770Z,1.52
2023-09-17T16:34:33.204Z,1.60
2023-09-17T16:37:00.503Z,1.60
2023-09-17T16:39:27.808Z,1.58
2023-09-17T16:41:55.078Z,1.63
2023-09-17T16:44:22.410Z,1.90
2023-09-17T16:46:49.827Z,1.40
2023-09-17T16:49:17.161Z,1.35
2023-09-17T16:51:44.787Z,1.77
2023-09-17T16:54:12.057Z,1.73
2023-09-17T16:56:39.617Z,1.52
2023-09-17T16:59:07.118Z,1.70
2023-09-17T17:01:35.311Z,1.40
2023-09-17T17:04:03.653Z,1.95
2023-09-17T17:06:31.349Z,1.50
2023-09-17T17:08:58.825Z,1.92
2023-09-17T17:11:26.154Z,1.95
2023-09-17T17:13:54.838Z,1.67
2023-09-17T17:16:22.317Z,1.70
2023-09-17T17:18:49.651Z,1.90
2023-09-17T17:21:16.854Z,1.52
2023-09-17T17:23:44.094Z,1.70
2023-09-17T17:26:11.340Z,1.45
2023-09-17T17:28:38.639Z,1.75
2023-09-17T17:31:06.724Z,1.95
2023-09-17T17:33:34.166Z,1.63
2023-09-17T17:36:02.063Z,1.60
2023-09-17T17:38:29.365Z,1.55
2023-09-17T17:40:56.987Z,1.63
2023-09-17T17:43:24.971Z,1.60
2023-09-17T17:45:52.370Z,1.55
2023-09-17T17:48:20.003Z,1.63
2023-09-17T17:50:47.579Z,2.00
2023-09-17T17:53:15.059Z,1.65
2023-09-17T17:55:42.446Z,1.50
2023-09-17T17:58:09.667Z,1.70
2023-09-17T18:00:37.069Z,1.63
2023-09-17T18:03:04.574Z,1.80
2023-09-17T18:05:34.290Z,1.52
2023-09-17T18:08:01.673Z,1.75
2023-09-17T18:10:29.033Z,1.77
2023-09-17T18:12:56.426Z,1.80
2023-09-17T18:15:23.750Z,1.83
2023-09-17T18:17:53.924Z,1.85
2023-09-17T18:20:21.834Z,1.50
2023-09-17T18:22:49.267Z,1.85
2023-09-17T18:25:16.587Z,1.90
2023-09-17T18:27:43.993Z,1.98
2023-09-17T18:30:11.434Z,1.90
2023-09-17T18:32:38.780Z,1.95
2023-09-17T18:35:06.326Z,2.20
2023-09-17T18:37:34.602Z,1.80
2023-09-17T18:40:01.932Z,2.38
2023-09-17T18:42:30.297Z,2.03
2023-09-17T18:44:58.491Z,2.10
2023-09-17T18:47:25.774Z,2.03
2023-09-17T18:49:56.177Z,1.90
2023-09-17T18:52:28.263Z,2.10
2023-09-17T18:54:56.231Z,2.05
2023-09-17T18:57:23.660Z,2.13
2023-09-17T18:59:55.188Z,2.40
2023-09-17T19:02:23.532Z,2.03
2023-09-17T19:04:51.391Z,2.03
2023-09-17T19:07:19.000Z,2.30
2023-09-17T19:09:46.497Z,2.10
2023-09-17T19:12:13.908Z,2.05
2023-09-17T19:14:41.639Z,2.30
2023-09-17T19:17:09.534Z,2.30
2023-09-17T19:19:36.951Z,2.40
2023-09-17T19:22:10.340Z,2.50
2023-09-17T19:24:38.262Z,1.90
2023-09-17T19:27:05.734Z,2.20
2023-09-17T19:29:33.054Z,2.10
2023-09-17T19:32:00.523Z,1.92
2023-09-17T19:34:27.937Z,2.22
2023-09-17T19:36:55.200Z,2.10
2023-09-17T19:39:22.521Z,2.10
2023-09-17T19:41:49.804Z,2.00
2023-09-17T19:44:17.290Z,2.40
2023-09-17T19:46:45.165Z,2.15
2023-09-17T19:49:12.708Z,2.25
2023-09-17T19:51:40.048Z,2.03
2023-09-17T19:54:08.337Z,2.40
2023-09-17T19:56:35.692Z,2.30
2023-09-17T19:59:02.955Z,2.10
2023-09-17T20:01:30.346Z,2.25
2023-09-17T20:03:59.487Z,2.42
2023-09-17T20:06:33.230Z,2.33
2023-09-17T20:09:16.262Z,2.88
2023-09-17T20:11:44.012Z,2.63
2023-09-17T20:14:11.440Z,2.40
2023-09-17T20:16:38.826Z,2.40
2023-09-17T20:19:06.981Z,2.55
2023-09-17T20:21:34.285Z,2.30
2023-09-17T20:24:01.851Z,2.50
2023-09-17T20:26:29.630Z,2.53
2023-09-17T20:28:57.113Z,2.00
2023-09-17T20:31:24.607Z,2.70
2023-09-17T20:33:52.132Z,2.70
2023-09-17T20:36:19.439Z,2.60
2023-09-17T20:38:50.961Z,2.83
2023-09-17T20:41:18.793Z,2.47
2023-09-17T20:43:46.255Z,2.63
2023-09-17T20:46:16.809Z,2.70
2023-09-17T20:48:45.003Z,2.67
2023-09-17T20:51:12.416Z,2.63
2023-09-17T20:53:39.909Z,2.70
2023-09-17T20:56:07.461Z,2.95
2023-09-17T20:58:36.286Z,3.13
2023-09-17T21:01:05.312Z,2.72
2023-09-17T21:03:32.936Z,2.63
2023-09-17T21:06:00.455Z,2.55
2023-09-17T21:08:27.755Z,2.75
2023-09-17T21:10:55.320Z,3.00
2023-09-17T21:13:22.619Z,2.83
2023-09-17T21:15:49.992Z,3.20
2023-09-17T21:18:17.303Z,3.08
2023-09-17T21:20:44.874Z,3.22
2023-09-17T21:23:12.151Z,3.13
2023-09-17T21:25:39.561Z,3.20
2023-09-17T21:28:07.413Z,3.13
2023-09-17T21:30:35.417Z,2.80
2023-09-17T21:33:03.303Z,2.60
2023-09-17T21:35:30.751Z,2.92
2023-09-17T21:37:58.218Z,2.85
2023-09-17T21:40:25.733Z,3.00
2023-09-17T21:42:53.049Z,2.75
2023-09-17T21:45:20.339Z,2.85
2023-09-17T21:47:47.681Z,2.97
2023-09-17T21:50:15.244Z,2.95
2023-09-17T21:52:42.606Z,2.92
2023-09-17T21:55:09.950Z,3.22
2023-09-17T21:57:37.603Z,3.25
2023-09-17T22:00:06.697Z,3.20
2023-09-17T22:02:34.180Z,3.00
2023-09-17T22:05:01.896Z,3.20
2023-09-17T22:07:29.382Z,3.20
2023-09-17T22:09:56.771Z,3.10
2023-09-17T22:12:24.210Z,3.15
2023-09-17T22:14:51.635Z,2.80
2023-09-17T22:17:20.338Z,2.90
2023-09-17T22:19:51.057Z,3.30
2023-09-17T22:22:18.508Z,3.22
2023-09-17T22:24:45.853Z,3.13
2023-09-17T22:27:15.808Z,3.45
2023-09-17T22:29:43.849Z,2.90
2023-09-17T22:32:11.307Z,3.00
2023-09-17T22:34:38.993Z,2.97
2023-09-17T22:37:06.318Z,3.03
2023-09-17T22:39:33.697Z,3.63
2023-09-17T22:42:01.207Z,3.10
2023-09-17T22:44:28.473Z,3.20
2023-09-17T22:46:55.968Z,5.20
2023-09-17T22:49:24.793Z,5.30
2023-09-17T22:51:52.145Z,5.93
2023-09-17T22:54:19.573Z,5.22
2023-09-17T22:56:46.923Z,4.82
2023-09-17T22:59:14.571Z,4.70
2023-09-17T23:01:41.945Z,4.20
2023-09-17T23:04:09.602Z,3.70
2023-09-17T23:06:36.960Z,3.53
2023-09-17T23:09:05.098Z,3.50
2023-09-17T23:11:33.013Z,4.10
2023-09-17T23:14:06.685Z,3.50
2023-09-17T23:16:34.731Z,3.67
2023-09-17T23:19:02.220Z,3.50
2023-09-17T23:21:29.518Z,3.60
2023-09-17T23:23:59.366Z,3.88
2023-09-17T23:26:29.477Z,3.28
2023-09-17T23:28:57.899Z,3.58
2023-09-17T23:31:25.820Z,3.42
2023-09-17T23:33:53.382Z,3.30
2023-09-17T23:36:20.757Z,3.85
2023-09-17T23:38:51.565Z,3.40
2023-09-17T23:41:19.416Z,3.70
2023-09-17T23:43:47.546Z,3.42
2023-09-17T23:46:15.347Z,3.55
2023-09-17T23:48:42.965Z,3.33
2023-09-17T23:51:10.272Z,3.70
2023-09-17T23:53:37.628Z,3.58
2023-09-17T23:56:05.098Z,3.50
2023-09-17T23:58:32.416Z,3.70
